Time;durP1;ratioP1;P1;durP2;ratioP2;P2;SDS_P1;SDS_P2;PMS_P1;PMS_P2;Temp;Humidity;BMP_temperature;BMP_pressure;BME280_temperature;BME280_humidity;BME280_pressure;Samples;Min_cycle;Max_cycle;Signal;HPM_P1;HPM_P2
2021/06/14 00:00:53;;;;;;;2.67;2.58;;;;;;;;;;5013803;28;20560;-49
2021/06/14 00:03:20;;;;;;;2.55;2.35;;;;;;;;;;5011004;28;20054;-49
2021/06/14 00:05:47;;;;;;;3.20;3.00;;;;;;;;;;5012022;28;20047;-48
2021/06/14 00:08:17;;;;;;;2.17;2.08;;;;;;;;;;5011533;28;20060;-52
2021/06/14 00:10:45;;;;;;;2.40;2.30;;;;;;;;;;5010283;28;20046;-51
2021/06/14 00:13:12;;;;;;;2.00;2.00;;;;;;;;;;5012474;28;20080;-52
2021/06/14 00:15:40;;;;;;;2.15;2.05;;;;;;;;;;5011122;28;20045;-51
2021/06/14 00:18:07;;;;;;;2.60;2.60;;;;;;;;;;5010815;28;20100;-50
2021/06/14 00:20:35;;;;;;;2.67;2.58;;;;;;;;;;5011349;28;20042;-49
2021/06/14 00:23:06;;;;;;;3.03;2.92;;;;;;;;;;5010156;28;20049;-51
2021/06/14 00:25:33;;;;;;;2.80;2.80;;;;;;;;;;5009893;28;20374;-49
2021/06/14 00:28:01;;;;;;;2.53;2.42;;;;;;;;;;5005045;28;20494;-48
2021/06/14 00:30:28;;;;;;;3.22;2.63;;;;;;;;;;4998753;28;20117;-49
2021/06/14 00:32:55;;;;;;;2.85;2.75;;;;;;;;;;5011618;28;20066;-52
2021/06/14 00:35:22;;;;;;;3.40;3.17;;;;;;;;;;5007105;28;20037;-52
2021/06/14 00:37:49;;;;;;;3.15;3.05;;;;;;;;;;4999920;28;20080;-52
2021/06/14 00:40:16;;;;;;;4.10;3.17;;;;;;;;;;5010228;28;20140;-48
2021/06/14 00:42:44;;;;;;;2.97;2.88;;;;;;;;;;5009073;28;20509;-51
2021/06/14 00:45:15;;;;;;;3.47;3.28;;;;;;;;;;5010874;28;20073;-53
2021/06/14 00:47:42;;;;;;;3.03;2.88;;;;;;;;;;5010723;28;20029;-51
2021/06/14 00:50:10;;;;;;;2.67;2.58;;;;;;;;;;5008967;28;20455;-50
2021/06/14 00:52:38;;;;;;;3.55;3.45;;;;;;;;;;5007621;28;20049;-52
2021/06/14 00:55:06;;;;;;;4.03;3.22;;;;;;;;;;5008784;28;20100;-48
2021/06/14 00:57:33;;;;;;;6.50;3.67;;;;;;;;;;5009790;28;20080;-52
2021/06/14 01:00:00;;;;;;;5.45;4.25;;;;;;;;;;5009168;28;20046;-52
2021/06/14 01:02:27;;;;;;;4.20;3.75;;;;;;;;;;5009830;28;20465;-50
2021/06/14 01:04:54;;;;;;;2.97;2.88;;;;;;;;;;5001646;28;20105;-47
2021/06/14 01:07:21;;;;;;;3.53;3.42;;;;;;;;;;5010359;28;20052;-50
2021/06/14 01:09:47;;;;;;;5.10;4.30;;;;;;;;;;5011506;28;20066;-49
2021/06/14 01:12:16;;;;;;;3.17;2.97;;;;;;;;;;5010482;28;20561;-51
2021/06/14 01:15:02;;;;;;;3.95;2.67;;;;;;;;;;5008502;28;21038;-52
2021/06/14 01:17:55;;;;;;;3.22;3.05;;;;;;;;;;5012021;28;20124;-51
2021/06/14 01:20:25;;;;;;;3.25;3.15;;;;;;;;;;5007227;28;20049;-49
2021/06/14 01:23:01;;;;;;;3.20;3.10;;;;;;;;;;5008460;28;20478;-52
2021/06/14 01:25:54;;;;;;;3.30;3.20;;;;;;;;;;5010781;28;20042;-48
2021/06/14 01:28:22;;;;;;;3.45;3.35;;;;;;;;;;5006940;28;20600;-52
2021/06/14 01:30:50;;;;;;;3.53;3.42;;;;;;;;;;5008336;28;20042;-53
2021/06/14 01:33:18;;;;;;;3.47;3.38;;;;;;;;;;5011293;28;20099;-52
2021/06/14 01:35:45;;;;;;;3.38;3.17;;;;;;;;;;5006630;28;20533;-52
2021/06/14 01:38:12;;;;;;;3.03;2.92;;;;;;;;;;5002749;28;20040;-51
2021/06/14 01:40:39;;;;;;;4.03;3.83;;;;;;;;;;5004802;28;20042;-50
2021/06/14 01:43:08;;;;;;;4.00;3.80;;;;;;;;;;4999490;28;20117;-50
2021/06/14 01:45:37;;;;;;;3.05;2.95;;;;;;;;;;5010042;28;20041;-51
2021/06/14 01:48:04;;;;;;;3.28;3.17;;;;;;;;;;5009849;28;20100;-51
2021/06/14 01:50:31;;;;;;;3.05;2.95;;;;;;;;;;4993269;28;20066;-52
2021/06/14 01:52:59;;;;;;;2.70;2.60;;;;;;;;;;5010903;28;20053;-50
2021/06/14 01:55:26;;;;;;;3.00;2.90;;;;;;;;;;5009975;28;20064;-48
2021/06/14 01:57:53;;;;;;;3.13;3.03;;;;;;;;;;5008917;28;20076;-49
2021/06/14 02:00:21;;;;;;;3.15;3.05;;;;;;;;;;5007978;28;20095;-51
2021/06/14 02:02:48;;;;;;;3.05;2.95;;;;;;;;;;5009909;28;20506;-50
2021/06/14 02:05:17;;;;;;;2.90;2.80;;;;;;;;;;5000353;28;20050;-48
2021/06/14 02:07:44;;;;;;;3.63;3.53;;;;;;;;;;5002317;28;20108;-53
2021/06/14 02:10:11;;;;;;;5.03;4.72;;;;;;;;;;5009794;28;20135;-53
2021/06/14 02:12:39;;;;;;;4.13;4.00;;;;;;;;;;5008746;28;20069;-53
2021/06/14 02:15:07;;;;;;;4.18;4.07;;;;;;;;;;5008671;28;20037;-49
2021/06/14 02:17:35;;;;;;;3.05;2.95;;;;;;;;;;4999716;28;20054;-52
2021/06/14 02:20:03;;;;;;;3.90;3.70;;;;;;;;;;5001583;28;20130;-52
2021/06/14 02:22:30;;;;;;;4.40;3.97;;;;;;;;;;5009039;28;20466;-51
2021/06/14 02:24:56;;;;;;;3.85;3.75;;;;;;;;;;5009466;28;20057;-48
2021/06/14 02:27:23;;;;;;;2.80;2.80;;;;;;;;;;5008500;28;20084;-52
2021/06/14 02:29:50;;;;;;;3.53;3.42;;;;;;;;;;5010324;28;20034;-51
2021/06/14 02:32:17;;;;;;;2.60;2.58;;;;;;;;;;5008848;28;20089;-52
2021/06/14 02:34:44;;;;;;;4.15;3.92;;;;;;;;;;5008762;28;20077;-49
2021/06/14 02:37:12;;;;;;;3.88;3.78;;;;;;;;;;5009875;28;20048;-48
2021/06/14 02:39:39;;;;;;;4.15;4.05;;;;;;;;;;4998875;28;20072;-51
2021/06/14 02:42:06;;;;;;;3.85;3.75;;;;;;;;;;5011655;28;20042;-49
2021/06/14 02:44:33;;;;;;;3.47;3.38;;;;;;;;;;5012509;28;20041;-49
2021/06/14 02:47:02;;;;;;;4.53;4.22;;;;;;;;;;5012728;28;20434;-49
2021/06/14 02:49:29;;;;;;;3.80;3.60;;;;;;;;;;5014295;28;20453;-50
2021/06/14 02:51:58;;;;;;;3.90;3.80;;;;;;;;;;5012757;28;20037;-52
2021/06/14 02:54:32;;;;;;;4.07;3.97;;;;;;;;;;5006827;28;20128;-49
2021/06/14 02:56:59;;;;;;;4.70;3.63;;;;;;;;;;5012831;28;20052;-53
2021/06/14 02:59:27;;;;;;;4.40;4.28;;;;;;;;;;5012247;28;20034;-51
2021/06/14 03:01:55;;;;;;;4.95;4.65;;;;;;;;;;5013313;28;20104;-51
2021/06/14 03:04:23;;;;;;;3.92;3.83;;;;;;;;;;5012570;28;20489;-52
2021/06/14 03:06:51;;;;;;;3.63;3.53;;;;;;;;;;5013233;28;20050;-52
2021/06/14 03:09:18;;;;;;;3.60;3.50;;;;;;;;;;5012958;28;20049;-52
2021/06/14 03:11:45;;;;;;;3.65;3.55;;;;;;;;;;5012549;28;20042;-52
2021/06/14 03:14:12;;;;;;;4.75;4.35;;;;;;;;;;5012297;28;20042;-52
2021/06/14 03:16:41;;;;;;;4.15;3.92;;;;;;;;;;5011565;28;20076;-50
2021/06/14 03:19:09;;;;;;;4.07;3.78;;;;;;;;;;4995842;28;20054;-49
2021/06/14 03:21:36;;;;;;;4.30;4.13;;;;;;;;;;5013586;28;20713;-49
2021/06/14 03:24:04;;;;;;;4.68;4.47;;;;;;;;;;5005685;28;20113;-49
2021/06/14 03:26:33;;;;;;;4.70;4.60;;;;;;;;;;5011509;28;20093;-51
2021/06/14 03:29:01;;;;;;;4.82;4.72;;;;;;;;;;5011363;28;20034;-52
2021/06/14 03:31:28;;;;;;;4.95;4.75;;;;;;;;;;5011450;28;20042;-50
2021/06/14 03:33:55;;;;;;;4.82;4.53;;;;;;;;;;5013581;28;20047;-50
2021/06/14 03:36:23;;;;;;;4.68;4.22;;;;;;;;;;5010735;28;20149;-51
2021/06/14 03:38:53;;;;;;;4.70;4.50;;;;;;;;;;5014044;28;20476;-51
2021/06/14 03:41:20;;;;;;;4.57;4.35;;;;;;;;;;5011435;28;20121;-52
2021/06/14 03:43:47;;;;;;;4.28;4.05;;;;;;;;;;5011518;28;20046;-53
2021/06/14 03:46:14;;;;;;;3.42;3.03;;;;;;;;;;5013552;28;20683;-52
2021/06/14 03:48:41;;;;;;;4.03;3.60;;;;;;;;;;5011316;28;20494;-53
2021/06/14 03:51:08;;;;;;;4.53;4.22;;;;;;;;;;4998712;28;20038;-52
2021/06/14 03:53:34;;;;;;;4.30;4.07;;;;;;;;;;5011035;28;20077;-50
2021/06/14 03:56:05;;;;;;;4.53;4.32;;;;;;;;;;5012243;28;20038;-50
2021/06/14 03:58:32;;;;;;;4.47;4.30;;;;;;;;;;5011616;28;20463;-49
2021/06/14 04:00:59;;;;;;;3.97;3.88;;;;;;;;;;5011117;28;20092;-53
2021/06/14 04:03:28;;;;;;;4.63;4.35;;;;;;;;;;5010037;28;20073;-50
2021/06/14 04:05:56;;;;;;;5.50;5.15;;;;;;;;;;5012236;28;20107;-53
2021/06/14 04:08:23;;;;;;;4.50;4.40;;;;;;;;;;5012687;28;20049;-53
2021/06/14 04:10:50;;;;;;;5.65;5.22;;;;;;;;;;5004356;28;20336;-51
2021/06/14 04:13:16;;;;;;;4.90;4.80;;;;;;;;;;5008365;28;20454;-50
2021/06/14 04:15:43;;;;;;;5.65;5.40;;;;;;;;;;5012391;28;20124;-50
2021/06/14 04:18:10;;;;;;;4.80;4.50;;;;;;;;;;5010758;28;20042;-50
2021/06/14 04:20:37;;;;;;;4.43;4.18;;;;;;;;;;5011722;28;20092;-50
2021/06/14 04:23:04;;;;;;;5.10;5.00;;;;;;;;;;5008624;28;20108;-49
2021/06/14 04:25:31;;;;;;;5.55;5.18;;;;;;;;;;5009204;28;20116;-52
2021/06/14 04:27:58;;;;;;;4.88;4.68;;;;;;;;;;5010386;28;20089;-50
2021/06/14 04:30:25;;;;;;;5.55;5.28;;;;;;;;;;5002057;28;20864;-51
2021/06/14 04:32:52;;;;;;;4.65;4.40;;;;;;;;;;5003206;28;20084;-52
2021/06/14 04:35:18;;;;;;;4.97;4.70;;;;;;;;;;5010936;28;20498;-54
2021/06/14 04:37:45;;;;;;;5.38;5.28;;;;;;;;;;5011613;28;20125;-54
2021/06/14 04:40:12;;;;;;;7.78;5.25;;;;;;;;;;5008498;28;20053;-51
2021/06/14 04:42:39;;;;;;;5.53;5.32;;;;;;;;;;5007995;28;20050;-52
2021/06/14 04:45:06;;;;;;;4.80;4.70;;;;;;;;;;5009507;28;20124;-51
2021/06/14 04:47:32;;;;;;;5.40;4.53;;;;;;;;;;5011479;28;20123;-50
2021/06/14 04:50:01;;;;;;;6.32;5.90;;;;;;;;;;5010733;28;20745;-52
2021/06/14 04:52:28;;;;;;;6.72;6.07;;;;;;;;;;5010797;28;20038;-53
2021/06/14 04:54:55;;;;;;;4.85;4.65;;;;;;;;;;5010963;28;20042;-50
2021/06/14 04:57:22;;;;;;;4.22;4.07;;;;;;;;;;5009261;28;20474;-53
2021/06/14 04:59:49;;;;;;;6.78;4.95;;;;;;;;;;5010968;28;20223;-51
2021/06/14 05:02:16;;;;;;;4.68;4.57;;;;;;;;;;5009034;28;20125;-49
2021/06/14 05:04:42;;;;;;;5.25;4.85;;;;;;;;;;5009509;28;20084;-52
2021/06/14 05:07:12;;;;;;;6.78;5.20;;;;;;;;;;5010649;28;20058;-53
2021/06/14 05:09:47;;;;;;;6.15;5.22;;;;;;;;;;5007257;28;20061;-52
2021/06/14 05:12:18;;;;;;;6.47;6.28;;;;;;;;;;4994673;28;20053;-52
2021/06/14 05:14:50;;;;;;;5.50;4.97;;;;;;;;;;5002439;28;20053;-52
2021/06/14 05:17:21;;;;;;;6.47;6.10;;;;;;;;;;5002724;28;20138;-53
2021/06/14 05:19:52;;;;;;;6.20;5.90;;;;;;;;;;5008886;28;20125;-53
2021/06/14 05:22:28;;;;;;;6.28;6.18;;;;;;;;;;5004423;28;20042;-49
2021/06/14 05:24:59;;;;;;;6.35;6.07;;;;;;;;;;5003852;28;20095;-48
2021/06/14 05:27:33;;;;;;;5.70;5.60;;;;;;;;;;5011035;28;20052;-48
2021/06/14 05:30:06;;;;;;;7.53;7.13;;;;;;;;;;5008701;28;20045;-49
2021/06/14 05:32:38;;;;;;;5.95;5.68;;;;;;;;;;5009418;28;20069;-52
2021/06/14 05:35:10;;;;;;;5.80;5.32;;;;;;;;;;5010780;28;20027;-50
2021/06/14 05:37:39;;;;;;;5.93;5.72;;;;;;;;;;5008735;28;20053;-49
2021/06/14 05:40:12;;;;;;;6.70;5.70;;;;;;;;;;5009399;28;20047;-47
2021/06/14 05:42:44;;;;;;;5.97;5.57;;;;;;;;;;5009856;28;20073;-47
2021/06/14 05:45:16;;;;;;;6.90;6.45;;;;;;;;;;5007994;28;20030;-48
2021/06/14 05:47:48;;;;;;;6.85;6.15;;;;;;;;;;5011214;28;20042;-50
2021/06/14 05:50:29;;;;;;;7.28;6.75;;;;;;;;;;4973155;28;20762;-47
2021/06/14 05:53:03;;;;;;;6.47;6.20;;;;;;;;;;5008919;28;20513;-51
2021/06/14 05:55:37;;;;;;;6.38;6.05;;;;;;;;;;5019758;28;20042;-50
2021/06/14 05:58:08;;;;;;;6.47;6.30;;;;;;;;;;5004682;28;20046;-49
2021/06/14 06:00:42;;;;;;;5.55;5.35;;;;;;;;;;5007685;28;20046;-47
2021/06/14 06:03:13;;;;;;;5.28;5.18;;;;;;;;;;5009405;28;20042;-49
2021/06/14 06:05:44;;;;;;;6.72;6.43;;;;;;;;;;5008453;28;20029;-48
2021/06/14 06:08:16;;;;;;;5.75;5.45;;;;;;;;;;5008773;28;20053;-50
2021/06/14 06:10:48;;;;;;;6.00;5.90;;;;;;;;;;5007319;28;20034;-46
2021/06/14 06:13:19;;;;;;;6.10;5.80;;;;;;;;;;5007350;28;20042;-49
2021/06/14 06:15:55;;;;;;;6.45;6.00;;;;;;;;;;5010596;28;20121;-48
2021/06/14 06:18:30;;;;;;;5.10;4.68;;;;;;;;;;5008402;28;20042;-51
2021/06/14 06:21:00;;;;;;;5.13;5.03;;;;;;;;;;5007201;28;20046;-49
2021/06/14 06:23:30;;;;;;;5.68;5.47;;;;;;;;;;5011000;28;20117;-45
2021/06/14 06:26:01;;;;;;;6.28;5.90;;;;;;;;;;5007089;28;20037;-50
2021/06/14 06:28:33;;;;;;;4.63;4.43;;;;;;;;;;5009786;28;20526;-48
2021/06/14 06:31:10;;;;;;;4.90;4.70;;;;;;;;;;5009311;28;20042;-47
2021/06/14 06:33:44;;;;;;;4.28;4.18;;;;;;;;;;5006872;28;20466;-49
2021/06/14 06:36:17;;;;;;;4.78;4.57;;;;;;;;;;5010893;28;20037;-50
2021/06/14 06:38:49;;;;;;;5.03;4.93;;;;;;;;;;5008187;28;20052;-48
2021/06/14 06:41:21;;;;;;;;;;;;;;;;;;5007256;28;20084;-49
2021/06/14 06:43:50;;;;;;;5.35;4.90;;;;;;;;;;5009579;28;20277;-49
2021/06/14 06:46:23;;;;;;;6.03;5.82;;;;;;;;;;5007580;28;20042;-47
2021/06/14 06:48:59;;;;;;;5.03;4.88;;;;;;;;;;4991784;28;20054;-50
2021/06/14 06:51:33;;;;;;;6.07;5.75;;;;;;;;;;5009248;28;20046;-47
2021/06/14 06:54:13;;;;;;;6.50;6.07;;;;;;;;;;5006616;28;20046;-47
2021/06/14 06:56:47;;;;;;;5.68;5.40;;;;;;;;;;5010699;28;20401;-45
2021/06/14 06:59:22;;;;;;;5.95;5.72;;;;;;;;;;5007908;28;20050;-49
2021/06/14 07:01:54;;;;;;;4.97;4.78;;;;;;;;;;5007126;28;20461;-50
2021/06/14 07:04:26;;;;;;;4.43;4.32;;;;;;;;;;5009526;28;20125;-47
2021/06/14 07:07:04;;;;;;;4.45;4.10;;;;;;;;;;5007224;28;20524;-46
2021/06/14 07:09:36;;;;;;;3.83;3.72;;;;;;;;;;5006816;28;20160;-49
2021/06/14 07:12:05;;;;;;;4.40;4.13;;;;;;;;;;5010187;28;20040;-48
2021/06/14 07:14:39;;;;;;;3.03;2.90;;;;;;;;;;5006748;28;20142;-47
2021/06/14 07:17:11;;;;;;;2.90;2.80;;;;;;;;;;5005930;28;20037;-45
2021/06/14 07:19:46;;;;;;;4.38;4.28;;;;;;;;;;5008534;28;20096;-47
2021/06/14 07:22:16;;;;;;;3.40;3.22;;;;;;;;;;5006881;28;20457;-48
2021/06/14 07:24:53;;;;;;;3.75;3.53;;;;;;;;;;4974073;28;20405;-47
2021/06/14 07:27:25;;;;;;;3.67;3.38;;;;;;;;;;5006168;28;20064;-47
2021/06/14 07:29:53;;;;;;;3.05;2.92;;;;;;;;;;5009618;28;20034;-49
2021/06/14 07:32:24;;;;;;;3.35;3.05;;;;;;;;;;5012831;28;20092;-49
2021/06/14 07:34:54;;;;;;;3.22;3.00;;;;;;;;;;5010828;28;20133;-48
2021/06/14 07:37:27;;;;;;;3.08;2.63;;;;;;;;;;5011188;28;20046;-47
2021/06/14 07:39:59;;;;;;;3.35;2.58;;;;;;;;;;5012771;28;20129;-50
2021/06/14 07:42:34;;;;;;;6.13;2.10;;;;;;;;;;5009671;28;20041;-48
2021/06/14 07:45:13;;;;;;;3.00;2.80;;;;;;;;;;5012717;28;20038;-47
2021/06/14 07:47:44;;;;;;;3.70;3.42;;;;;;;;;;5011730;28;20121;-47
2021/06/14 07:50:17;;;;;;;2.38;2.22;;;;;;;;;;5011023;28;20050;-48
2021/06/14 07:52:50;;;;;;;2.60;2.50;;;;;;;;;;5012576;28;20092;-49
2021/06/14 07:55:27;;;;;;;2.88;2.67;;;;;;;;;;5009889;28;20459;-48
2021/06/14 07:58:02;;;;;;;2.42;2.22;;;;;;;;;;5009994;28;20048;-48
2021/06/14 08:00:33;;;;;;;2.58;2.47;;;;;;;;;;5012163;28;20395;-47
2021/06/14 08:03:08;;;;;;;2.60;2.38;;;;;;;;;;5009410;28;20513;-46
2021/06/14 08:05:44;;;;;;;2.25;2.15;;;;;;;;;;5007129;28;20042;-48
2021/06/14 08:08:15;;;;;;;3.60;3.40;;;;;;;;;;5012456;28;20766;-47
2021/06/14 08:10:50;;;;;;;2.65;2.45;;;;;;;;;;5010799;28;20065;-47
2021/06/14 08:13:25;;;;;;;2.47;2.22;;;;;;;;;;5011549;28;20038;-47
2021/06/14 08:16:08;;;;;;;3.20;2.13;;;;;;;;;;5011763;28;20038;-48
2021/06/14 08:27:07;;;;;;;1.98;1.88;;;;;;;;;;4967686;28;20047;-47
2021/06/14 08:29:39;;;;;;;2.08;1.65;;;;;;;;;;4961548;28;20648;-50
2021/06/14 08:32:10;;;;;;;2.22;1.75;;;;;;;;;;4965606;28;20170;-47
2021/06/14 08:34:47;;;;;;;6.10;2.42;;;;;;;;;;4943449;28;20577;-47
2021/06/14 08:37:20;;;;;;;1.90;1.80;;;;;;;;;;4971283;28;20042;-51
2021/06/14 08:39:50;;;;;;;2.35;2.15;;;;;;;;;;4968518;28;20471;-48
2021/06/14 08:42:24;;;;;;;2.88;1.80;;;;;;;;;;4965503;28;20101;-48
2021/06/14 08:44:57;;;;;;;4.85;2.17;;;;;;;;;;4964124;28;20043;-47
2021/06/14 08:47:30;;;;;;;1.35;1.35;;;;;;;;;;4965276;28;20058;-47
2021/06/14 08:50:04;;;;;;;1.73;1.23;;;;;;;;;;4968748;28;20101;-48
2021/06/14 08:52:35;;;;;;;1.30;1.30;;;;;;;;;;4969462;28;20138;-48
2021/06/14 08:55:11;;;;;;;1.63;1.42;;;;;;;;;;4968923;28;20050;-48
2021/06/14 08:57:41;;;;;;;1.75;1.63;;;;;;;;;;4969727;28;20379;-48
2021/06/14 09:00:14;;;;;;;3.40;1.23;;;;;;;;;;4980965;28;20062;-49
2021/06/14 09:02:46;;;;;;;3.78;1.83;;;;;;;;;;4996640;28;20037;-50
2021/06/14 09:05:27;;;;;;;1.95;1.85;;;;;;;;;;4977249;28;20057;-51
2021/06/14 09:08:00;;;;;;;4.05;1.30;;;;;;;;;;5008190;28;20128;-49
2021/06/14 09:10:34;;;;;;;1.60;1.50;;;;;;;;;;5008311;28;20092;-47
2021/06/14 09:13:10;;;;;;;2.65;1.60;;;;;;;;;;5006254;28;20054;-48
2021/06/14 09:15:42;;;;;;;3.08;1.80;;;;;;;;;;4998475;28;20046;-49
2021/06/14 09:18:29;;;;;;;1.48;1.48;;;;;;;;;;4993117;28;20232;-49
2021/06/14 09:21:04;;;;;;;3.65;1.63;;;;;;;;;;5006897;28;20045;-50
2021/06/14 09:23:40;;;;;;;2.65;1.58;;;;;;;;;;5003364;28;20050;-48
2021/06/14 09:26:27;;;;;;;1.52;1.42;;;;;;;;;;4990736;28;20180;-47
2021/06/14 09:29:08;;;;;;;1.55;1.45;;;;;;;;;;5005646;28;20144;-48
2021/06/14 09:31:45;;;;;;;0.90;0.90;;;;;;;;;;4998636;28;20120;-51
2021/06/14 09:34:32;;;;;;;2.05;1.10;;;;;;;;;;5004755;28;20092;-51
2021/06/14 09:37:11;;;;;;;1.88;1.10;;;;;;;;;;5006603;28;20128;-48
2021/06/14 09:39:49;;;;;;;1.63;0.90;;;;;;;;;;5004247;28;20086;-49
2021/06/14 09:42:27;;;;;;;1.00;1.00;;;;;;;;;;4990493;28;20125;-49
2021/06/14 09:45:08;;;;;;;1.77;0.90;;;;;;;;;;5006589;28;20038;-49
2021/06/14 09:47:42;;;;;;;1.10;1.10;;;;;;;;;;4997696;28;20057;-47
2021/06/14 09:50:12;;;;;;;0.88;0.88;;;;;;;;;;4975809;28;20054;-49
2021/06/14 09:52:49;;;;;;;3.15;0.80;;;;;;;;;;4996640;28;20043;-49
2021/06/14 09:55:20;;;;;;;0.80;0.80;;;;;;;;;;4994855;28;20078;-48
2021/06/14 09:57:58;;;;;;;0.73;0.73;;;;;;;;;;4989828;28;20144;-50
2021/06/14 10:00:34;;;;;;;0.95;0.80;;;;;;;;;;5002139;28;20041;-50
2021/06/14 10:03:12;;;;;;;1.15;0.70;;;;;;;;;;4999043;28;20077;-47
2021/06/14 10:05:50;;;;;;;0.80;0.80;;;;;;;;;;5009640;28;20104;-50
2021/06/14 10:08:29;;;;;;;0.90;0.73;;;;;;;;;;5004724;28;20129;-49
2021/06/14 10:11:04;;;;;;;0.70;0.70;;;;;;;;;;5006734;28;20034;-52
2021/06/14 10:13:42;;;;;;;0.70;0.70;;;;;;;;;;5009274;28;20474;-47
2021/06/14 10:16:17;;;;;;;2.15;0.70;;;;;;;;;;5007063;28;20490;-47
2021/06/14 10:18:54;;;;;;;2.83;0.80;;;;;;;;;;5008633;28;20556;-50
2021/06/14 10:21:32;;;;;;;0.70;0.70;;;;;;;;;;5006907;28;20030;-50
2021/06/14 10:24:16;;;;;;;0.82;0.68;;;;;;;;;;5004699;28;20038;-48
2021/06/14 10:26:56;;;;;;;0.70;0.70;;;;;;;;;;5006765;28;20034;-48
2021/06/14 10:29:34;;;;;;;0.77;0.70;;;;;;;;;;5009453;28;20046;-49
2021/06/14 10:32:11;;;;;;;1.13;0.63;;;;;;;;;;4993470;28;20034;-48
2021/06/14 10:34:49;;;;;;;0.60;0.60;;;;;;;;;;5007540;28;20449;-50
2021/06/14 10:37:26;;;;;;;0.52;0.52;;;;;;;;;;5002396;28;20041;-46
2021/06/14 10:40:05;;;;;;;0.65;0.65;;;;;;;;;;5004360;28;20056;-47
2021/06/14 10:42:44;;;;;;;2.05;0.63;;;;;;;;;;5005058;28;20042;-52
2021/06/14 10:45:22;;;;;;;0.60;0.60;;;;;;;;;;5003865;28;20044;-49
2021/06/14 10:47:55;;;;;;;0.60;0.60;;;;;;;;;;5008589;28;20042;-49
2021/06/14 10:50:31;;;;;;;0.60;0.60;;;;;;;;;;5005985;28;20038;-48
2021/06/14 10:53:03;;;;;;;0.68;0.68;;;;;;;;;;5007995;28;20038;-47
2021/06/14 10:55:37;;;;;;;0.80;0.80;;;;;;;;;;5014727;28;20041;-50
2021/06/14 10:58:19;;;;;;;1.38;0.60;;;;;;;;;;5002651;28;20694;-51
2021/06/14 11:01:02;;;;;;;1.17;1.17;;;;;;;;;;4988039;28;20104;-50
2021/06/14 11:03:48;;;;;;;0.70;0.70;;;;;;;;;;5008695;28;20124;-48
2021/06/14 11:06:24;;;;;;;1.95;0.70;;;;;;;;;;5009526;28;20042;-48
2021/06/14 11:08:58;;;;;;;0.60;0.60;;;;;;;;;;4997535;28;20078;-48
2021/06/14 11:11:52;;;;;;;0.63;0.63;;;;;;;;;;5013874;28;20046;-49
2021/06/14 11:14:28;;;;;;;0.73;0.73;;;;;;;;;;5009577;28;20061;-51
2021/06/14 11:17:21;;;;;;;2.08;1.05;;;;;;;;;;5012628;28;20445;-48
2021/06/14 11:20:05;;;;;;;0.70;0.70;;;;;;;;;;5006398;28;20143;-51
2021/06/14 11:22:43;;;;;;;1.85;0.70;;;;;;;;;;5007413;28;20069;-48
2021/06/14 11:25:33;;;;;;;0.82;0.82;;;;;;;;;;5008730;28;20136;-50
2021/06/14 11:28:10;;;;;;;0.70;0.70;;;;;;;;;;5012462;28;20096;-52
2021/06/14 11:30:49;;;;;;;0.70;0.70;;;;;;;;;;5006913;28;20046;-51
2021/06/14 11:33:27;;;;;;;0.70;0.70;;;;;;;;;;5000320;28;20124;-50
2021/06/14 11:36:12;;;;;;;0.83;0.83;;;;;;;;;;5011922;28;20046;-51
2021/06/14 11:38:42;;;;;;;2.10;0.80;;;;;;;;;;5010884;28;20062;-49
2021/06/14 11:41:24;;;;;;;0.70;0.70;;;;;;;;;;5006997;28;20125;-46
2021/06/14 11:44:13;;;;;;;0.80;0.80;;;;;;;;;;5006568;28;20121;-47
2021/06/14 11:46:48;;;;;;;0.70;0.70;;;;;;;;;;5008625;28;20042;-47
2021/06/14 11:49:18;;;;;;;1.00;0.85;;;;;;;;;;5001434;28;20092;-45
2021/06/14 11:51:49;;;;;;;1.92;0.70;;;;;;;;;;5003387;28;20523;-46
2021/06/14 11:54:20;;;;;;;0.90;0.70;;;;;;;;;;5011651;28;20034;-45
2021/06/14 11:56:58;;;;;;;0.80;0.80;;;;;;;;;;5011470;28;20089;-46
2021/06/14 11:59:40;;;;;;;0.95;0.95;;;;;;;;;;5007789;28;20034;-46
2021/06/14 12:02:20;;;;;;;0.93;0.70;;;;;;;;;;5013024;28;20042;-46
2021/06/14 12:04:57;;;;;;;3.03;0.88;;;;;;;;;;4996147;28;23508;-46
2021/06/14 12:07:31;;;;;;;1.33;0.70;;;;;;;;;;5009901;28;20062;-46
2021/06/14 12:10:11;;;;;;;0.70;0.70;;;;;;;;;;5011014;28;20639;-45
2021/06/14 12:12:46;;;;;;;0.80;0.70;;;;;;;;;;4993901;28;20061;-46
2021/06/14 12:15:16;;;;;;;1.20;0.70;;;;;;;;;;5007743;28;20605;-44
2021/06/14 12:17:52;;;;;;;0.60;0.60;;;;;;;;;;5010547;28;20030;-46
2021/06/14 12:20:35;;;;;;;1.10;0.82;;;;;;;;;;5011108;28;20075;-47
2021/06/14 12:23:13;;;;;;;1.55;1.15;;;;;;;;;;5005936;28;20121;-45
2021/06/14 12:25:51;;;;;;;0.60;0.60;;;;;;;;;;5002940;28;20041;-47
2021/06/14 12:28:25;;;;;;;1.08;0.80;;;;;;;;;;5002860;28;20062;-45
2021/06/14 12:31:09;;;;;;;0.65;0.65;;;;;;;;;;5010017;28;20112;-45
2021/06/14 12:33:44;;;;;;;0.60;0.60;;;;;;;;;;5010442;28;20052;-45
2021/06/14 12:36:14;;;;;;;2.45;0.80;;;;;;;;;;5011265;28;20033;-46
2021/06/14 12:38:52;;;;;;;0.70;0.70;;;;;;;;;;5007193;28;20036;-45
2021/06/14 12:41:29;;;;;;;0.70;0.70;;;;;;;;;;5004884;28;20042;-46
2021/06/14 12:44:12;;;;;;;1.08;0.63;;;;;;;;;;5005851;28;21252;-47
2021/06/14 12:46:50;;;;;;;0.65;0.65;;;;;;;;;;5006092;28;20041;-45
2021/06/14 12:49:32;;;;;;;0.60;0.60;;;;;;;;;;4999109;28;20045;-45
2021/06/14 12:52:18;;;;;;;1.40;0.70;;;;;;;;;;5010668;28;20112;-44
2021/06/14 12:54:48;;;;;;;0.60;0.60;;;;;;;;;;5008721;28;20038;-44
2021/06/14 12:57:24;;;;;;;4.20;0.60;;;;;;;;;;5022841;28;20434;-46
2021/06/14 12:59:55;;;;;;;0.57;0.57;;;;;;;;;;5011423;28;20045;-44
2021/06/14 13:02:28;;;;;;;0.65;0.60;;;;;;;;;;5008211;28;20385;-45
2021/06/14 13:05:08;;;;;;;0.70;0.70;;;;;;;;;;5010723;28;20104;-46
2021/06/14 13:07:37;;;;;;;1.40;0.60;;;;;;;;;;5008402;28;20506;-44
2021/06/14 13:10:17;;;;;;;2.88;0.80;;;;;;;;;;5009604;28;20042;-45
2021/06/14 13:12:49;;;;;;;0.68;0.68;;;;;;;;;;5011094;28;20053;-44
2021/06/14 13:15:29;;;;;;;0.60;0.60;;;;;;;;;;5009013;28;20050;-44
2021/06/14 13:18:08;;;;;;;1.67;0.60;;;;;;;;;;5010364;28;20054;-47
2021/06/14 13:20:44;;;;;;;0.60;0.60;;;;;;;;;;5009675;28;20042;-46
2021/06/14 13:23:19;;;;;;;0.60;0.60;;;;;;;;;;5010023;28;20065;-46
2021/06/14 13:25:57;;;;;;;1.35;0.70;;;;;;;;;;5008778;28;20172;-45
2021/06/14 13:28:32;;;;;;;0.82;0.60;;;;;;;;;;5009605;28;20057;-47
2021/06/14 13:31:11;;;;;;;2.38;0.70;;;;;;;;;;5008007;28;20120;-46
2021/06/14 13:36:41;;;;;;;0.68;0.68;;;;;;;;;;5003162;28;20057;-46
2021/06/14 13:39:12;;;;;;;0.70;0.70;;;;;;;;;;5008863;28;20487;-46
2021/06/14 13:41:40;;;;;;;1.38;0.70;;;;;;;;;;5005745;28;20069;-45
2021/06/14 13:44:08;;;;;;;2.47;0.60;;;;;;;;;;5011039;28;20054;-44
2021/06/14 13:46:40;;;;;;;0.63;0.60;;;;;;;;;;5008881;28;20048;-45
2021/06/14 13:49:07;;;;;;;0.70;0.70;;;;;;;;;;5010818;28;20076;-45
2021/06/14 13:51:33;;;;;;;2.92;0.70;;;;;;;;;;5008405;28;20076;-45
2021/06/14 13:54:00;;;;;;;0.70;0.70;;;;;;;;;;5009044;28;20038;-45
2021/06/14 13:56:29;;;;;;;1.15;0.70;;;;;;;;;;5011042;28;20038;-44
2021/06/14 13:58:56;;;;;;;1.85;0.70;;;;;;;;;;5008596;28;20129;-44
2021/06/14 14:01:24;;;;;;;0.70;0.70;;;;;;;;;;5010320;28;20077;-44
2021/06/14 14:04:03;;;;;;;0.68;0.68;;;;;;;;;;5009077;28;20045;-45
2021/06/14 14:06:30;;;;;;;0.70;0.70;;;;;;;;;;5007869;28;20080;-45
2021/06/14 14:09:01;;;;;;;0.80;0.80;;;;;;;;;;5010656;28;20062;-44
2021/06/14 14:11:36;;;;;;;2.35;0.75;;;;;;;;;;5008505;28;20045;-44
2021/06/14 14:14:10;;;;;;;1.27;1.13;;;;;;;;;;5008318;28;20435;-45
2021/06/14 14:16:40;;;;;;;1.95;0.88;;;;;;;;;;5010387;28;20418;-44
2021/06/14 14:19:14;;;;;;;1.58;0.73;;;;;;;;;;5007763;28;20056;-44
2021/06/14 14:21:40;;;;;;;0.80;0.80;;;;;;;;;;5009512;28;20046;-44
2021/06/14 14:24:08;;;;;;;1.38;0.63;;;;;;;;;;5007910;28;20049;-44
2021/06/14 14:26:37;;;;;;;1.38;0.70;;;;;;;;;;5007469;28;20406;-45
2021/06/14 14:29:05;;;;;;;2.10;0.70;;;;;;;;;;5010041;28;20128;-44
2021/06/14 14:31:35;;;;;;;0.60;0.60;;;;;;;;;;5009147;28;20544;-46
2021/06/14 14:34:01;;;;;;;0.70;0.70;;;;;;;;;;5008354;28;20038;-44
2021/06/14 14:36:33;;;;;;;1.10;0.70;;;;;;;;;;5009341;28;20038;-44
2021/06/14 14:39:05;;;;;;;3.40;0.70;;;;;;;;;;5002012;28;20041;-45
2021/06/14 14:41:32;;;;;;;1.85;0.70;;;;;;;;;;5017997;28;20034;-44
2021/06/14 14:43:59;;;;;;;2.85;0.70;;;;;;;;;;5012657;28;20066;-44
2021/06/14 14:46:26;;;;;;;2.92;0.80;;;;;;;;;;5012451;28;20418;-46
2021/06/14 14:49:00;;;;;;;0.80;0.80;;;;;;;;;;5015550;28;20107;-44
2021/06/14 14:51:30;;;;;;;2.55;0.60;;;;;;;;;;5015058;28;20057;-44
2021/06/14 14:54:10;;;;;;;3.75;0.70;;;;;;;;;;5015737;28;20579;-46
2021/06/14 14:56:38;;;;;;;0.93;0.70;;;;;;;;;;5019723;28;20065;-45
2021/06/14 14:59:05;;;;;;;1.40;0.70;;;;;;;;;;5020926;28;20052;-47
2021/06/14 15:01:32;;;;;;;1.23;1.13;;;;;;;;;;5017044;28;20112;-47
2021/06/14 15:04:00;;;;;;;3.13;0.60;;;;;;;;;;5014229;28;20069;-45
2021/06/14 15:06:27;;;;;;;1.70;0.70;;;;;;;;;;5015583;28;20435;-44
2021/06/14 15:08:54;;;;;;;1.15;0.70;;;;;;;;;;5015659;28;20544;-45
2021/06/14 15:11:21;;;;;;;1.48;0.80;;;;;;;;;;5014517;28;20459;-44
2021/06/14 15:13:48;;;;;;;1.67;0.70;;;;;;;;;;5013131;28;20034;-45
2021/06/14 15:16:15;;;;;;;2.15;0.60;;;;;;;;;;5008762;28;20069;-47
2021/06/14 15:18:45;;;;;;;1.75;0.70;;;;;;;;;;5014071;28;20045;-47
2021/06/14 15:21:12;;;;;;;0.60;0.60;;;;;;;;;;5015405;28;20069;-44
2021/06/14 15:23:40;;;;;;;0.60;0.60;;;;;;;;;;5013348;28;20160;-46